Time;durP1;ratioP1;P1;durP2;ratioP2;P2;SDS_P1;SDS_P2;PMS_P1;PMS_P2;Temp;Humidity;BMP_temperature;BMP_pressure;BME280_temperature;BME280_humidity;BME280_pressure;Samples;Min_cycle;Max_cycle;Signal;HPM_P1;HPM_P2
2022/05/04 00:02:13;;;;;;;;;35.75;26.50;;;;;14.96;56.24;101149.69;6303539;22;46686;-78
2022/05/04 00:04:39;;;;;;;;;26.75;22.75;;;;;14.95;56.43;101145.38;6302860;22;45505;-77
2022/05/04 00:07:04;;;;;;;;;29.25;22.25;;;;;14.92;56.05;101144.78;6302782;22;45730;-77
2022/05/04 00:09:29;;;;;;;;;31.75;26.00;;;;;14.88;56.33;101138.09;6302944;22;47274;-77
2022/05/04 00:11:55;;;;;;;;;33.75;28.00;;;;;14.85;56.29;101139.16;6275045;22;48011;-76
2022/05/04 00:14:20;;;;;;;;;25.25;24.25;;;;;14.85;56.34;101141.78;6302797;22;45559;-76
2022/05/04 00:16:45;;;;;;;;;30.75;25.50;;;;;14.86;56.54;101138.19;6303596;22;45575;-77
2022/05/04 00:19:11;;;;;;;;;30.75;24.75;;;;;14.80;56.28;101135.22;6303367;22;46384;-77
2022/05/04 00:21:36;;;;;;;;;29.00;26.00;;;;;14.79;56.62;101123.00;6303465;22;46010;-77
2022/05/04 00:24:02;;;;;;;;;24.50;20.00;;;;;14.76;56.59;101123.25;6303526;22;45477;-77
2022/05/04 00:26:27;;;;;;;;;28.25;25.50;;;;;14.72;56.68;101119.19;6303439;22;45494;-77
2022/05/04 00:28:52;;;;;;;;;29.25;25.00;;;;;14.68;56.37;101111.50;6302494;22;45505;-77
2022/05/04 00:31:18;;;;;;;;;21.00;19.25;;;;;14.66;56.64;101117.88;6302783;22;46216;-77
2022/05/04 00:33:44;;;;;;;;;28.00;23.00;;;;;14.61;57.01;101107.69;6275020;22;45486;-75
2022/05/04 00:39:31;;;;;;;;;25.75;24.00;;;;;14.55;56.69;101117.88;6302970;22;45669;-77
2022/05/04 00:42:25;;;;;;;;;26.50;24.50;;;;;14.52;57.30;101105.75;6303270;22;45513;-78
2022/05/04 00:44:51;;;;;;;;;24.25;22.50;;;;;14.49;57.30;101106.03;6147437;22;45907;-79
2022/05/04 00:47:18;;;;;;;;;37.50;30.00;;;;;14.50;57.00;101114.78;6147158;23;45823;-77
2022/05/04 00:49:46;;;;;;;;;23.50;20.25;;;;;14.47;58.10;101118.47;6147096;23;45602;-77
2022/05/04 00:52:13;;;;;;;;;30.75;29.50;;;;;14.45;57.86;101114.31;6147675;23;46058;-78
2022/05/04 00:54:42;;;;;;;;;32.50;29.00;;;;;14.42;57.46;101115.38;6146953;23;45739;-78
2022/05/04 00:57:08;;;;;;;;;31.75;26.50;;;;;14.39;57.59;101113.00;6122184;23;46054;-77
2022/05/04 00:59:36;;;;;;;;;28.75;26.00;;;;;14.38;57.02;101121.84;6147537;23;45614;-78
2022/05/04 01:02:02;;;;;;;;;27.75;25.25;;;;;14.37;57.13;101122.81;6147368;23;45999;-77
2022/05/04 01:04:28;;;;;;;;;34.75;27.75;;;;;14.37;58.02;101122.81;6147565;23;45715;-76
2022/05/04 01:06:53;;;;;;;;;33.00;26.00;;;;;14.29;57.53;101126.03;6147663;23;45477;-77
2022/05/04 01:09:20;;;;;;;;;22.50;15.50;;;;;14.29;58.19;101122.56;6122273;23;46370;-76
2022/05/04 01:11:46;;;;;;;;;30.25;25.50;;;;;14.26;57.67;101120.97;6147729;23;45580;-79
2022/05/04 01:14:12;;;;;;;;;31.50;29.50;;;;;14.26;57.79;101112.22;6121987;23;45630;-77
2022/05/04 01:16:41;;;;;;;;;26.00;24.25;;;;;14.27;57.40;101119.19;6147062;23;45570;-77
2022/05/04 01:19:07;;;;;;;;;31.00;26.25;;;;;14.25;58.42;101115.84;6147704;23;46683;-77
2022/05/04 01:24:54;;;;;;;;;30.25;28.25;;;;;14.15;58.57;101118.34;6302801;22;45846;-76
2022/05/04 01:27:19;;;;;;;;;34.25;30.75;;;;;14.13;58.78;101124.69;6302640;22;45439;-77
2022/05/04 01:29:46;;;;;;;;;27.75;25.75;;;;;14.12;58.18;101129.13;6302936;22;45517;-77
2022/05/04 01:32:12;;;;;;;;;28.00;26.00;;;;;14.10;58.12;101122.28;6303082;22;46200;-76
2022/05/04 01:34:37;;;;;;;;;35.50;31.00;;;;;14.04;58.33;101118.34;6303089;22;45546;-77
2022/05/04 01:37:03;;;;;;;;;33.25;28.75;;;;;14.07;58.05;101118.13;6274694;22;45867;-77
2022/05/04 01:39:28;;;;;;;;;31.25;27.50;;;;;14.04;58.02;101109.59;6302863;22;46085;-77
2022/05/04 01:42:03;;;;;;;;;29.50;26.25;;;;;14.07;58.04;101123.38;6302942;22;45581;-77
2022/05/04 01:44:32;;;;;;;;;30.75;27.25;;;;;14.08;58.46;101119.78;6303141;22;45627;-76
2022/05/04 01:47:00;;;;;;;;;29.50;27.25;;;;;14.08;58.54;101122.44;6302200;22;45427;-77
2022/05/04 01:49:26;;;;;;;;;31.75;29.50;;;;;14.07;58.65;101112.00;6302774;22;46511;-77
2022/05/04 01:55:14;;;;;;;;;27.50;26.00;;;;;14.05;58.31;101109.47;6297371;22;45698;-77
2022/05/04 01:57:39;;;;;;;;;31.00;26.25;;;;;14.06;58.56;101111.16;6302881;22;45411;-77
2022/05/04 02:00:07;;;;;;;;;28.25;25.75;;;;;14.06;58.25;101119.06;6302579;22;45493;-77
2022/05/04 02:02:34;;;;;;;;;29.50;25.25;;;;;14.05;58.44;101119.16;6302682;22;45995;-77
2022/05/04 02:05:00;;;;;;;;;37.75;23.75;;;;;14.02;58.63;101129.97;6302833;22;45543;-77
2022/05/04 02:07:25;;;;;;;;;29.75;24.25;;;;;13.98;58.47;101124.06;6302545;22;45634;-77
2022/05/04 02:09:51;;;;;;;;;23.75;22.25;;;;;13.95;58.33;101126.13;6301900;22;47165;-77
2022/05/04 02:12:16;;;;;;;;;28.25;26.25;;;;;13.93;58.82;101126.22;6302678;22;45666;-77
2022/05/04 02:14:42;;;;;;;;;27.00;22.00;;;;;13.90;59.34;101117.72;6274255;22;45660;-78
2022/05/04 02:17:07;;;;;;;;;25.50;23.75;;;;;13.85;59.04;101118.09;6302742;22;45530;-77
2022/05/04 02:19:32;;;;;;;;;35.25;28.00;;;;;13.83;58.95;101119.97;6302292;22;46860;-74
2022/05/04 02:25:19;;;;;;;;;30.00;25.25;;;;;13.77;58.73;101123.91;6302693;22;45780;-76
2022/05/04 02:27:45;;;;;;;;;35.50;32.00;;;;;13.77;58.96;101112.53;6302631;22;45490;-76
2022/05/04 02:30:13;;;;;;;;;28.00;24.00;;;;;13.78;59.09;101108.97;6302625;22;45515;-77
2022/05/04 02:32:38;;;;;;;;;36.75;31.00;;;;;13.77;59.14;101102.00;6302651;22;45938;-76
2022/05/04 02:41:10;;;;;;;;;28.25;25.00;;;;;13.69;59.17;101109.69;6303334;22;45656;-75
2022/05/04 02:43:35;;;;;;;;;29.75;27.50;;;;;13.65;59.33;101110.88;6302993;22;46461;-76
2022/05/04 02:46:20;;;;;;;;;30.25;28.00;;;;;13.65;59.26;101116.13;6303659;22;45545;-77
2022/05/04 02:48:46;;;;;;;;;35.25;29.00;;;;;13.61;59.77;101107.59;6303557;22;45834;-76
2022/05/04 02:51:13;;;;;;;;;34.00;30.50;;;;;13.59;59.30;101104.28;6303592;22;45531;-77
2022/05/04 02:53:38;;;;;;;;;34.50;30.00;;;;;13.59;59.58;101099.00;6302967;22;45995;-76
2022/05/04 02:56:05;;;;;;;;;30.00;25.50;;;;;13.60;59.27;101100.69;6302930;22;45514;-76
2022/05/04 02:58:30;;;;;;;;;33.50;31.00;;;;;13.62;59.79;101096.13;6304110;22;45489;-76
2022/05/04 03:04:07;;;;;;;;;32.25;28.00;;;;;13.57;59.96;101098.28;6303525;22;46097;-76
2022/05/04 03:06:40;;;;;;;;;46.50;37.00;;;;;13.57;59.27;101093.00;6303269;22;45565;-77
2022/05/04 03:09:07;;;;;;;;;50.75;39.75;;;;;13.51;59.44;101096.09;6303143;22;45583;-77
2022/05/04 03:14:20;;;;;;;;;64.25;44.50;;;;;13.53;59.87;101091.56;6303380;22;45639;-77
2022/05/04 03:16:46;;;;;;;;;57.25;44.75;;;;;13.54;59.78;101088.00;6302715;22;45610;-76
2022/05/04 03:19:11;;;;;;;;;53.50;41.50;;;;;13.53;59.34;101093.34;6303845;22;45573;-76
2022/05/04 03:21:37;;;;;;;;;56.00;44.25;;;;;13.52;60.14;101087.25;6302611;22;45517;-76
2022/05/04 03:24:02;;;;;;;;;61.25;44.25;;;;;13.47;59.43;101083.28;6302664;22;47122;-75
2022/05/04 03:26:28;;;;;;;;;56.75;41.75;;;;;13.49;59.43;101086.66;6303316;22;45529;-76
2022/05/04 03:28:53;;;;;;;;;52.75;41.00;;;;;13.45;59.79;101088.66;6303689;22;45400;-76
2022/05/04 03:31:19;;;;;;;;;51.50;39.75;;;;;13.47;59.88;101088.56;6303574;22;46274;-76
2022/05/04 03:33:45;;;;;;;;;50.50;38.00;;;;;13.43;59.98;101098.50;6303505;22;45531;-76
2022/05/04 03:36:13;;;;;;;;;53.25;36.50;;;;;13.40;59.64;101081.13;6275263;22;45565;-76
2022/05/04 03:38:39;;;;;;;;;43.75;37.25;;;;;13.38;59.87;101084.84;6303746;22;45560;-76
2022/05/04 03:41:04;;;;;;;;;36.75;32.75;;;;;13.34;60.53;101086.00;6303127;22;45640;-76
2022/05/04 03:43:29;;;;;;;;;40.50;33.75;;;;;13.26;60.39;101078.69;6303382;22;46523;-77
2022/05/04 03:45:55;;;;;;;;;43.00;32.50;;;;;13.22;60.18;101074.63;6274885;22;45841;-76
2022/05/04 03:48:21;;;;;;;;;33.50;32.25;;;;;13.22;60.06;101076.41;6303798;22;45773;-77
2022/05/04 03:50:47;;;;;;;;;32.25;29.00;;;;;13.18;60.22;101086.31;6303400;22;46895;-76
2022/05/04 03:56:34;;;;;;;;;35.50;28.50;;;;;13.12;60.49;101083.31;6297247;22;45646;-74
2022/05/04 03:59:00;;;;;;;;;31.50;29.00;;;;;13.06;60.42;101094.25;6303958;22;45387;-77
2022/05/04 04:01:26;;;;;;;;;36.50;31.75;;;;;12.99;60.35;101085.97;6303403;22;46736;-76
2022/05/04 04:03:51;;;;;;;;;36.75;32.00;;;;;12.95;61.11;101084.53;6302723;22;46012;-76
2022/05/04 04:06:17;;;;;;;;;36.25;31.50;;;;;12.92;60.61;101077.69;6302491;22;45356;-77
2022/05/04 04:08:42;;;;;;;;;31.00;29.25;;;;;12.90;60.82;101069.03;6303971;22;45364;-77
2022/05/04 04:11:07;;;;;;;;;36.75;28.50;;;;;12.91;60.95;101083.03;6303386;22;45462;-77
2022/05/04 04:13:33;;;;;;;;;35.25;30.25;;;;;12.86;61.18;101072.03;6303172;22;45581;-77
2022/05/04 04:15:58;;;;;;;;;38.00;32.75;;;;;12.88;60.99;101072.75;6302707;22;45886;-77
2022/05/04 04:18:25;;;;;;;;;35.25;31.00;;;;;12.84;60.70;101063.44;6303725;22;45510;-76
2022/05/04 04:26:57;;;;;;;;;39.25;31.00;;;;;12.94;60.89;101090.72;6302893;22;45376;-76
2022/05/04 04:29:23;;;;;;;;;34.25;28.75;;;;;12.94;61.12;101091.56;6303320;22;45687;-76
2022/05/04 04:31:48;;;;;;;;;33.75;28.25;;;;;12.95;61.29;101092.41;6303337;22;45439;-75
2022/05/04 04:34:13;;;;;;;;;36.50;32.25;;;;;12.95;61.28;101084.53;6302591;22;46867;-78
2022/05/04 04:36:39;;;;;;;;;32.00;27.25;;;;;12.94;61.36;101096.81;6303052;22;45648;-78
2022/05/04 04:39:04;;;;;;;;;33.50;29.00;;;;;12.93;61.39;101084.63;6303473;22;45438;-76
2022/05/04 04:41:31;;;;;;;;;36.25;28.50;;;;;12.93;61.38;101084.63;6303040;22;45781;-77
2022/05/04 04:43:59;;;;;;;;;27.50;25.50;;;;;12.90;61.22;101084.81;6274716;22;48084;-77
2022/05/04 04:46:24;;;;;;;;;35.50;30.50;;;;;12.92;61.64;101088.19;6274636;22;45484;-76
2022/05/04 04:48:50;;;;;;;;;31.25;26.50;;;;;12.94;61.46;101102.09;6274938;22;45861;-77
2022/05/04 04:51:16;;;;;;;;;44.00;32.00;;;;;12.94;61.33;101101.25;6303249;22;45675;-77
2022/05/04 04:57:04;;;;;;;;;39.75;34.50;;;;;12.93;61.69;101104.81;6300023;22;45980;-77
2022/05/04 04:59:29;;;;;;;;;36.75;31.50;;;;;12.91;62.13;101098.81;6302739;22;45745;-76
2022/05/04 05:01:55;;;;;;;;;33.75;27.25;;;;;12.89;61.34;101096.31;6302543;22;46637;-76
2022/05/04 05:04:20;;;;;;;;;40.50;29.50;;;;;12.91;61.28;101102.28;6303191;22;46128;-76
2022/05/04 05:06:45;;;;;;;;;37.25;33.25;;;;;12.93;61.49;101105.66;6302210;22;45574;-78
2022/05/04 05:09:11;;;;;;;;;38.75;30.50;;;;;12.92;62.04;101105.75;6275062;22;45774;-78
2022/05/04 05:11:36;;;;;;;;;31.50;28.00;;;;;12.93;61.55;101102.19;6303122;22;45427;-77
2022/05/04 05:16:45;;;;;;;;;38.75;28.50;;;;;12.93;61.30;101108.28;6303151;22;45558;-75
2022/05/04 05:19:11;;;;;;;;;34.50;31.50;;;;;12.96;61.37;101113.31;6303361;22;45462;-76
2022/05/04 05:21:36;;;;;;;;;38.50;31.00;;;;;12.95;61.13;101109.03;6274620;22;48193;-75
2022/05/04 05:27:23;;;;;;;;;35.00;30.00;;;;;12.99;61.39;101107.00;6302646;22;45717;-77
2022/05/04 05:29:49;;;;;;;;;42.50;32.25;;;;;13.01;61.26;101112.97;6303335;22;45503;-76
2022/05/04 05:32:14;;;;;;;;;38.00;32.75;;;;;13.01;60.93;101113.81;6303100;22;46521;-75
2022/05/04 05:34:40;;;;;;;;;33.75;31.00;;;;;13.03;60.96;101111.94;6302504;22;46089;-76
2022/05/04 05:37:05;;;;;;;;;34.50;29.25;;;;;13.03;60.74;101106.66;6302724;22;45567;-77
2022/05/04 05:39:30;;;;;;;;;28.75;28.75;;;;;13.06;60.82;101118.75;6303293;22;45594;-76
2022/05/04 05:41:56;;;;;;;;;29.25;25.25;;;;;13.07;60.83;101115.16;6301662;22;47113;-76
2022/05/04 05:44:21;;;;;;;;;35.75;32.25;;;;;13.13;60.84;101129.69;6274190;22;47105;-75
2022/05/04 05:46:47;;;;;;;;;36.00;31.50;;;;;13.17;60.72;101116.19;6301751;22;45376;-77
2022/05/04 05:49:12;;;;;;;;;30.75;26.00;;;;;13.20;60.44;101118.63;6302514;22;45656;-77
2022/05/04 05:51:38;;;;;;;;;37.25;32.25;;;;;13.23;60.69;101114.91;6302587;22;45367;-77
2022/05/04 05:57:25;;;;;;;;;39.00;34.00;;;;;13.29;60.29;101120.56;6300003;22;45430;-76
2022/05/04 05:59:50;;;;;;;;;32.25;28.25;;;;;13.27;60.08;101109.31;6275464;22;45513;-77
2022/05/04 06:02:16;;;;;;;;;37.75;31.75;;;;;13.34;60.17;101120.22;6274525;22;48051;-77
2022/05/04 06:04:41;;;;;;;;;34.50;31.75;;;;;13.37;59.99;101122.63;6302841;22;45869;-76
2022/05/04 06:07:07;;;;;;;;;35.00;29.00;;;;;13.39;60.16;101134.69;6303029;22;45608;-76
2022/05/04 06:12:54;;;;;;;;;29.25;25.50;;;;;13.38;59.54;101129.56;6302167;22;46065;-77
2022/05/04 06:15:19;;;;;;;;;33.25;30.50;;;;;13.39;59.84;101134.69;6302745;22;46307;-75
2022/05/04 06:17:47;;;;;;;;;41.25;33.50;;;;;13.37;59.69;101146.31;6274517;22;45574;-77
2022/05/04 06:20:12;;;;;;;;;38.25;28.00;;;;;13.31;59.85;101139.72;6302852;22;45436;-77
2022/05/04 06:22:38;;;;;;;;;33.75;28.50;;;;;13.30;59.70;101145.91;6302814;22;46256;-77
2022/05/04 06:25:04;;;;;;;;;34.75;31.00;;;;;13.28;59.89;101155.72;6302712;22;45474;-77
2022/05/04 06:27:30;;;;;;;;;32.75;30.50;;;;;13.26;59.90;101155.00;6274089;22;45517;-77
2022/05/04 06:35:23;;;;;;;;;38.75;30.25;;;;;13.30;60.01;101158.25;6301664;22;45541;-74
2022/05/04 06:37:49;;;;;;;;;35.50;30.75;;;;;13.32;59.88;101159.81;6302350;22;45871;-73
2022/05/04 06:40:14;;;;;;;;;35.00;30.25;;;;;13.32;59.29;101148.44;6302102;22;45660;-73
2022/05/04 06:42:39;;;;;;;;;35.25;30.00;;;;;13.32;59.92;101149.28;6301275;22;45588;-73
2022/05/04 06:45:06;;;;;;;;;39.00;33.00;;;;;13.34;59.73;101149.16;6301507;22;46011;-73
2022/05/04 06:47:31;;;;;;;;;33.50;32.00;;;;;13.36;59.40;101148.09;6301599;22;45735;-73
2022/05/04 06:49:57;;;;;;;;;39.50;31.25;;;;;13.41;59.50;101153.88;6302065;22;45531;-73
2022/05/04 06:52:25;;;;;;;;;37.75;28.75;;;;;13.46;59.33;101150.88;6301282;22;46407;-73
2022/05/04 06:58:12;;;;;;;;;32.25;27.75;;;;;13.54;59.56;101150.31;6297091;22;45746;-73
2022/05/04 07:00:37;;;;;;;;;37.75;34.25;;;;;13.58;59.37;101149.97;6302118;22;45561;-74
2022/05/04 07:03:03;;;;;;;;;37.50;32.25;;;;;13.60;59.02;101148.09;6301952;22;46717;-74
2022/05/04 07:05:28;;;;;;;;;36.75;30.75;;;;;13.63;58.98;101158.38;6300872;22;46071;-74
2022/05/04 07:07:54;;;;;;;;;39.50;34.25;;;;;13.61;59.36;101147.09;6301333;22;45549;-74
2022/05/04 07:10:20;;;;;;;;;29.50;26.00;;;;;13.65;59.05;101145.09;6302434;22;45498;-74
2022/05/04 07:12:45;;;;;;;;;45.25;36.00;;;;;13.67;58.99;101154.53;6300980;22;47336;-73
2022/05/04 07:15:11;;;;;;;;;39.75;34.00;;;;;13.70;58.69;101159.59;6273380;22;45890;-74
2022/05/04 07:17:36;;;;;;;;;40.00;31.75;;;;;13.72;58.71;101160.31;6301263;22;45459;-74
2022/05/04 07:20:02;;;;;;;;;36.25;28.75;;;;;13.77;58.77;101166.06;6302077;22;45521;-75
2022/05/04 07:22:28;;;;;;;;;45.75;33.25;;;;;13.74;58.51;101162.84;6301812;22;46542;-74
2022/05/04 07:28:15;;;;;;;;;35.25;29.00;;;;;13.81;58.73;101171.97;6303420;22;45547;-74
2022/05/04 07:30:40;;;;;;;;;36.25;33.00;;;;;13.84;58.45;101169.91;6303460;22;45542;-74
2022/05/04 07:33:06;;;;;;;;;34.25;31.75;;;;;13.85;58.50;101166.34;6303446;22;45462;-74
2022/05/04 07:35:31;;;;;;;;;35.75;33.25;;;;;13.93;58.40;101175.47;6302406;22;46322;-74
2022/05/04 07:37:57;;;;;;;;;34.50;30.50;;;;;13.97;58.62;101176.91;6302584;22;45450;-76
2022/05/04 07:43:44;;;;;;;;;28.50;26.25;;;;;14.05;58.26;101182.41;6302518;22;46044;-77
2022/05/04 07:46:10;;;;;;;;;36.00;30.00;;;;;14.06;58.31;101186.72;6302483;22;45973;-78
2022/05/04 07:48:35;;;;;;;;;36.50;29.50;;;;;14.10;57.79;101191.63;6302705;22;45568;-78
2022/05/04 07:51:01;;;;;;;;;36.00;33.00;;;;;14.10;57.65;101177.63;6302855;22;45464;-77
2022/05/04 07:53:26;;;;;;;;;37.75;32.75;;;;;14.11;57.66;101180.16;6274083;22;47409;-78
2022/05/04 07:55:51;;;;;;;;;38.50;33.75;;;;;14.16;58.16;101183.28;6302186;22;46401;-77
2022/05/04 07:58:17;;;;;;;;;33.75;29.25;;;;;14.20;58.05;101186.50;6302321;22;45526;-76
2022/05/04 08:06:12;;;;;;;;;42.75;33.25;;;;;14.32;57.49;101187.34;6301998;22;46019;-75
2022/05/04 08:08:38;;;;;;;;;43.25;34.75;;;;;14.33;57.12;101174.06;6302255;22;45892;-77
2022/05/04 08:11:04;;;;;;;;;41.50;33.25;;;;;14.39;57.36;101178.06;6302816;22;45518;-76
2022/05/04 08:13:31;;;;;;;;;41.75;35.75;;;;;14.44;57.30;101186.44;6302616;22;45726;-76
2022/05/04 08:15:56;;;;;;;;;43.75;32.50;;;;;14.47;57.04;101186.19;6302295;22;46197;-79
2022/05/04 08:18:23;;;;;;;;;43.75;34.25;;;;;14.55;57.20;101187.28;6303004;22;45623;-77
2022/05/04 08:20:48;;;;;;;;;39.50;33.00;;;;;14.60;56.80;101192.19;6302553;22;45595;-76
2022/05/04 08:23:14;;;;;;;;;39.25;34.25;;;;;14.63;56.76;101191.94;6302615;22;45481;-76
2022/05/04 08:29:01;;;;;;;;;34.25;30.75;;;;;14.67;56.73;101190.75;6302288;22;45526;-75
2022/05/04 08:31:27;;;;;;;;;42.25;34.25;;;;;14.64;56.64;101183.06;6274171;22;45469;-78
2022/05/04 08:33:54;;;;;;;;;38.50;34.00;;;;;14.72;56.31;101195.66;6302253;22;46339;-79
2022/05/04 08:36:19;;;;;;;;;43.00;33.75;;;;;14.65;56.48;101184.75;6302336;22;45989;-77
2022/05/04 08:38:44;;;;;;;;;30.75;26.25;;;;;14.65;56.53;101195.31;6302782;22;45505;-78
2022/05/04 08:41:10;;;;;;;;;41.75;31.75;;;;;14.60;56.84;101184.28;6302833;22;45573;-78
2022/05/04 08:43:36;;;;;;;;;37.50;33.50;;;;;14.57;56.56;101177.47;6302620;22;45599;-79
2022/05/04 08:46:03;;;;;;;;;37.25;32.50;;;;;14.63;56.96;101178.75;6302248;22;45489;-78
2022/05/04 08:48:32;;;;;;;;;42.00;34.00;;;;;14.69;56.83;101189.66;6302835;22;45740;-79
2022/05/04 08:51:05;;;;;;;;;36.00;31.50;;;;;14.71;56.44;101184.28;6302967;22;45712;-78
2022/05/04 08:53:32;;;;;;;;;32.25;30.50;;;;;14.76;56.59;101184.75;6273993;22;48419;-78
2022/05/04 08:59:19;;;;;;;;;41.25;33.75;;;;;14.91;56.32;101196.72;6297107;22;45825;-78
2022/05/04 09:01:46;;;;;;;;;32.00;30.75;;;;;14.94;56.15;101201.75;6303276;22;45736;-77
2022/05/04 09:04:11;;;;;;;;;34.25;32.00;;;;;14.98;56.29;101202.34;6302993;22;46913;-76
2022/05/04 09:06:43;;;;;;;;;33.00;31.00;;;;;15.01;56.07;101202.94;6302173;22;45551;-76
2022/05/04 09:09:10;;;;;;;;;39.50;32.50;;;;;15.01;56.00;101196.81;6302373;22;45526;-77
2022/05/04 09:11:46;;;;;;;;;39.75;32.50;;;;;15.08;55.97;101206.75;6302549;22;45498;-78
2022/05/04 09:14:20;;;;;;;;;41.25;33.50;;;;;15.11;55.79;101209.16;6303087;22;47496;-78
2022/05/04 09:16:47;;;;;;;;;42.25;35.75;;;;;15.13;56.00;101211.66;6301168;22;46007;-77
2022/05/04 09:19:15;;;;;;;;;41.25;34.75;;;;;15.13;55.88;101214.31;6303145;22;45781;-76
2022/05/04 09:21:41;;;;;;;;;37.00;31.75;;;;;15.18;55.39;101206.84;6302782;22;45612;-77
2022/05/04 09:24:08;;;;;;;;;35.75;32.00;;;;;15.23;55.42;101209.13;6274753;22;47331;-77
2022/05/04 09:29:59;;;;;;;;;35.00;32.50;;;;;15.26;55.27;101207.09;6302838;22;45543;-77
2022/05/04 09:32:30;;;;;;;;;37.75;32.50;;;;;15.25;55.02;101209.84;6303079;22;45458;-77
2022/05/04 09:34:55;;;;;;;;;29.00;22.50;;;;;15.21;55.14;101204.00;6275551;22;45576;-77
2022/05/04 09:45:39;;;;;;;;;39.75;32.00;;;;;15.39;55.09;101175.22;6302808;22;45585;-78
2022/05/04 09:48:11;;;;;;;;;34.50;28.75;;;;;15.45;54.98;101180.00;6301630;22;46041;-78
2022/05/04 09:50:40;;;;;;;;;33.75;31.50;;;;;15.54;54.65;101184.59;6274017;22;45747;-78
2022/05/04 09:53:05;;;;;;;;;34.25;31.75;;;;;15.59;54.25;101176.28;6273268;22;45507;-77
2022/05/04 09:55:32;;;;;;;;;35.00;30.25;;;;;15.64;53.73;101171.44;6273108;22;45714;-77
2022/05/04 09:57:57;;;;;;;;;27.50;23.25;;;;;15.64;54.18;101169.66;6302191;22;46354;-78
2022/05/04 10:00:25;;;;;;;;;30.50;25.75;;;;;15.65;53.67;101170.50;6268081;22;45565;-77
2022/05/04 10:02:52;;;;;;;;;31.00;24.25;;;;;15.71;53.07;101181.34;6271102;22;45676;-78
2022/05/04 10:05:20;;;;;;;;;31.25;26.25;;;;;15.79;52.78;101178.94;6268523;22;47319;-78
2022/05/04 10:07:47;;;;;;;;;33.25;28.00;;;;;15.81;52.87;101176.16;6270915;22;45995;-78
2022/05/04 10:10:18;;;;;;;;;32.75;28.75;;;;;15.84;52.93;101170.59;6270803;22;45583;-78
2022/05/04 10:12:44;;;;;;;;;32.50;30.00;;;;;15.88;52.73;101178.16;6270834;22;45428;-78
2022/05/04 10:15:11;;;;;;;;;36.75;30.75;;;;;15.88;52.62;101167.56;6269671;22;46634;-77
2022/05/04 10:18:23;;;;;;;;;31.25;27.00;;;;;15.92;52.74;101174.28;6270340;22;47107;-78
2022/05/04 10:21:10;;;;;;;;;34.75;30.75;;;;;15.92;52.81;101160.25;6175813;23;45518;-76
2022/05/04 10:23:39;;;;;;;;;34.00;30.25;;;;;16.02;52.36;101173.50;6176322;23;45504;-77
2022/05/04 10:26:05;;;;;;;;;29.50;26.25;;;;;16.06;52.15;101172.28;6175415;23;45805;-79
2022/05/04 10:28:37;;;;;;;;;33.00;29.50;;;;;16.15;52.46;101172.31;6175480;23;48092;-80
2022/05/04 10:31:12;;;;;;;;;32.50;28.75;;;;;16.19;51.91;101181.69;6176161;23;45857;-79
2022/05/04 10:33:38;;;;;;;;;30.75;26.00;;;;;16.25;51.63;101188.22;6176289;23;45508;-80
2022/05/04 10:36:13;;;;;;;;;28.25;23.25;;;;;16.29;51.41;101179.09;6175785;23;45674;-79
2022/05/04 10:38:42;;;;;;;;;31.50;28.00;;;;;16.37;51.71;101190.66;6176031;23;46333;-78
2022/05/04 10:41:09;;;;;;;;;28.00;24.50;;;;;16.42;51.24;101189.44;6176314;23;45750;-76
2022/05/04 10:43:42;;;;;;;;;34.25;28.75;;;;;16.47;51.32;101188.06;6175959;23;45632;-78
2022/05/04 10:46:12;;;;;;;;;34.00;28.75;;;;;16.49;50.94;101188.78;6175378;23;45544;-78
2022/05/04 10:48:50;;;;;;;;;30.25;25.75;;;;;16.59;50.75;101196.78;6176361;23;46039;-78
2022/05/04 10:51:21;;;;;;;;;26.00;23.75;;;;;16.62;50.67;101205.31;6212334;22;45436;-79
2022/05/04 10:53:57;;;;;;;;;28.25;24.00;;;;;16.64;50.37;101200.72;6271514;22;45595;-80
2022/05/04 10:56:25;;;;;;;;;30.25;23.00;;;;;16.71;49.87;101196.56;6270517;22;45940;-80
2022/05/04 10:58:50;;;;;;;;;26.00;25.00;;;;;16.76;50.36;101196.16;6280602;22;46213;-78
2022/05/04 11:01:17;;;;;;;;;26.00;22.00;;;;;16.80;49.99;101200.19;6302594;22;45674;-79
2022/05/04 11:03:50;;;;;;;;;24.50;21.00;;;;;16.77;49.35;101181.97;6303258;22;45352;-79
2022/05/04 11:06:25;;;;;;;;;31.50;23.25;;;;;16.93;49.63;101181.44;6302839;22;45826;-79
2022/05/04 11:08:52;;;;;;;;;25.75;24.50;;;;;16.98;49.64;101182.72;6302909;22;46004;-79
2022/05/04 11:11:21;;;;;;;;;24.25;19.50;;;;;16.97;49.42;101159.00;6303422;22;45474;-87
2022/05/04 11:13:46;;;;;;;;;21.75;21.75;;;;;17.13;49.02;101177.84;6304174;22;45449;-77
2022/05/04 11:16:12;;;;;;;;;23.00;21.50;;;;;17.13;49.02;101170.75;6302446;22;45813;-77
2022/05/04 11:18:38;;;;;;;;;22.25;19.50;;;;;17.27;48.65;101169.53;6303359;22;46443;-77
2022/05/04 11:21:12;;;;;;;;;24.00;22.00;;;;;17.35;48.39;101166.16;6303098;22;45598;-77
2022/05/04 11:23:39;;;;;;;;;21.75;18.75;;;;;17.42;48.91;101162.84;6277042;22;45459;-77
2022/05/04 11:26:16;;;;;;;;;18.50;17.75;;;;;17.45;47.63;101157.25;6302868;22;45466;-76
2022/05/04 11:28:41;;;;;;;;;20.00;17.50;;;;;17.47;47.51;101165.06;6302735;22;46921;-77
2022/05/04 11:31:09;;;;;;;;;16.50;14.25;;;;;17.47;47.72;101163.25;6275308;22;45459;-76
2022/05/04 11:33:34;;;;;;;;;15.50;14.25;;;;;17.52;47.43;101153.06;6303401;22;45628;-77
2022/05/04 11:36:00;;;;;;;;;11.75;11.75;;;;;17.59;46.79;101164.81;6303150;22;46470;-77
2022/05/04 11:38:25;;;;;;;;;12.50;10.25;;;;;17.65;45.97;101162.59;6303668;22;46157;-75
2022/05/04 11:40:51;;;;;;;;;13.75;12.75;;;;;17.67;45.54;101153.50;6275010;22;45753;-77
2022/05/04 11:43:33;;;;;;;;;17.25;13.50;;;;;17.77;45.47;101167.56;6303254;22;45555;-77
2022/05/04 11:46:06;;;;;;;;;12.00;11.50;;;;;17.79;45.51;101154.19;6302134;22;45527;-77
2022/05/04 11:48:32;;;;;;;;;11.50;10.00;;;;;17.86;45.28;101165.91;6303444;22;45900;-77
2022/05/04 11:50:57;;;;;;;;;13.75;12.75;;;;;17.91;44.92;101155.69;6303347;22;45712;-75
2022/05/04 11:53:23;;;;;;;;;11.00;10.00;;;;;18.01;45.04;101165.31;6303612;22;45715;-76
2022/05/04 11:55:48;;;;;;;;;11.00;8.75;;;;;18.13;44.11;101149.22;6302455;22;46483;-77
2022/05/04 11:58:16;;;;;;;;;10.00;9.75;;;;;18.20;43.66;101148.47;6302345;22;46585;-75
2022/05/04 12:00:42;;;;;;;;;10.25;9.50;;;;;18.32;44.11;101147.31;6303669;22;45695;-75
2022/05/04 12:03:09;;;;;;;;;8.00;8.00;;;;;18.45;44.47;101144.34;6303443;22;45569;-78
2022/05/04 12:05:36;;;;;;;;;8.75;7.50;;;;;18.57;43.57;101145.03;6275127;22;46293;-77
2022/05/04 12:08:07;;;;;;;;;8.75;8.25;;;;;18.69;42.76;101144.66;6302360;22;46273;-76
2022/05/04 12:10:34;;;;;;;;;9.25;8.75;;;;;18.78;42.79;101146.47;6274832;22;45679;-77
2022/05/04 12:16:22;;;;;;;;;13.25;10.75;;;;;19.09;42.49;101144.28;6302829;22;45942;-75
2022/05/04 12:18:49;;;;;;;;;11.00;9.00;;;;;19.18;42.90;101147.84;6303538;22;45588;-76
2022/05/04 12:21:16;;;;;;;;;8.50;7.25;;;;;19.28;42.18;101148.59;6303520;22;45695;-76
2022/05/04 12:23:47;;;;;;;;;10.00;8.50;;;;;19.34;41.53;101149.81;6302708;22;45815;-78
2022/05/04 12:26:14;;;;;;;;;9.25;8.75;;;;;19.38;41.40;101140.56;6302374;22;46820;-78
2022/05/04 12:28:41;;;;;;;;;8.00;7.50;;;;;19.45;41.58;101146.97;6275050;22;47967;-76
2022/05/04 12:33:56;;;;;;;;;6.75;6.75;;;;;19.56;41.36;101147.56;6302853;22;45760;-78
2022/05/04 12:36:23;;;;;;;;;7.25;7.00;;;;;19.57;40.76;101148.41;6302935;22;45589;-77
2022/05/04 12:38:50;;;;;;;;;7.00;7.00;;;;;19.57;40.86;101141.25;6303531;22;45876;-80
2022/05/04 12:41:20;;;;;;;;;7.50;7.00;;;;;19.55;40.48;101137.06;6302998;22;45340;-77
2022/05/04 12:43:48;;;;;;;;;7.75;7.00;;;;;19.58;40.63;101129.66;6275102;22;45603;-77
2022/05/04 12:46:15;;;;;;;;;10.00;8.00;;;;;19.60;40.93;101130.31;6303010;22;45506;-77